EJU16WY LPPR-GVNP
Flight info
| Callsign | EJU16WY |
|---|---|
| Flight time | 4h 26m |
| Altitude | 33000 |
| Route | ASMOV DCT BEXAL/N0444F350 DCT SAMAR DCT YUSME DCT LIMAL/N0456F360 N873 IPERA DCT DIMKI UW21 BVT DISDA1H |
| Aircraft | A320/M-SDE2E3FGHIJ1RWXYZ/LB1 |
Departure
| Time | 2026-04-25 12:32 |
|---|---|
| Airport | Francisco de Sá Carneiro Airport (LPPR) |
Arrival
| Time | 2026-04-25 16:58 |
|---|---|
| Airport | Nelson Mandela International Airport (GVNP) |
| Time | Latitude | Longitude | Altitude | Speed | Heading |
|---|---|---|---|---|---|
| 2026-04-25 11:57 | 41.23531 | -8.67492 | 237 ft | 0 kts | 258° |
| 2026-04-25 12:18 | 41.23533 | -8.67478 | 237 ft | 2 kts | 258° |
| 2026-04-25 12:19 | 41.23539 | -8.67440 | 237 ft | 2 kts | 258° |
| 2026-04-25 12:19 | 41.23549 | -8.67412 | 237 ft | 3 kts | 212° |
| 2026-04-25 12:19 | 41.23566 | -8.67403 | 237 ft | 3 kts | 175° |
| 2026-04-25 12:20 | 41.23582 | -8.67409 | 237 ft | 3 kts | 161° |
| 2026-04-25 12:20 | 41.23599 | -8.67416 | 237 ft | 3 kts | 168° |
| 2026-04-25 12:20 | 41.23607 | -8.67419 | 237 ft | 0 kts | 168° |
| 2026-04-25 12:26 | 41.23607 | -8.67418 | 237 ft | 1 kts | 168° |
| 2026-04-25 12:26 | 41.23561 | -8.67407 | 237 ft | 11 kts | 170° |
| 2026-04-25 12:26 | 41.23481 | -8.67386 | 237 ft | 11 kts | 168° |
| 2026-04-25 12:27 | 41.23414 | -8.67368 | 237 ft | 9 kts | 169° |
| 2026-04-25 12:27 | 41.23354 | -8.67371 | 237 ft | 9 kts | 212° |
| 2026-04-25 12:27 | 41.23331 | -8.67433 | 237 ft | 7 kts | 258° |
| 2026-04-25 12:27 | 41.23323 | -8.67490 | 237 ft | 6 kts | 258° |
| 2026-04-25 12:28 | 41.23316 | -8.67537 | 237 ft | 6 kts | 259° |
| 2026-04-25 12:28 | 41.23306 | -8.67602 | 237 ft | 5 kts | 259° |
| 2026-04-25 12:28 | 41.23306 | -8.67605 | 237 ft | 0 kts | 259° |
| 2026-04-25 12:29 | 41.23306 | -8.67608 | 237 ft | 3 kts | 259° |
| 2026-04-25 12:29 | 41.23297 | -8.67666 | 238 ft | 6 kts | 259° |
| 2026-04-25 12:29 | 41.23315 | -8.67730 | 239 ft | 8 kts | 323° |
| 2026-04-25 12:30 | 41.23347 | -8.67742 | 238 ft | 0 kts | 348° |
| 2026-04-25 12:31 | 41.23388 | -8.67753 | 237 ft | 26 kts | 348° |
| 2026-04-25 12:31 | 41.23815 | -8.67865 | 223 ft | 96 kts | 349° |
| 2026-04-25 12:31 | 41.24663 | -8.68088 | 201 ft | 150 kts | 349° |
| 2026-04-25 12:31 | 41.25801 | -8.68377 | 437 ft | 171 kts | 347° |
| 2026-04-25 12:32 | 41.26969 | -8.68683 | 1121 ft | 171 kts | 347° |
| 2026-04-25 12:32 | 41.28136 | -8.68990 | 1709 ft | 179 kts | 349° |
| 2026-04-25 12:32 | 41.29431 | -8.69328 | 1951 ft | 201 kts | 349° |
| 2026-04-25 12:32 | 41.30882 | -8.69707 | 2210 ft | 224 kts | 349° |
| 2026-04-25 12:33 | 41.32492 | -8.70130 | 2471 ft | 248 kts | 349° |
| 2026-04-25 12:33 | 41.34236 | -8.70589 | 3091 ft | 260 kts | 349° |
| 2026-04-25 12:33 | 41.36029 | -8.71064 | 3865 ft | 265 kts | 350° |
| 2026-04-25 12:33 | 41.37855 | -8.71545 | 4668 ft | 270 kts | 350° |
| 2026-04-25 12:34 | 41.39661 | -8.72266 | 5441 ft | 276 kts | 331° |
| 2026-04-25 12:34 | 41.41087 | -8.73979 | 6180 ft | 281 kts | 301° |
| 2026-04-25 12:34 | 41.41726 | -8.76423 | 6904 ft | 284 kts | 273° |
| 2026-04-25 12:34 | 41.41730 | -8.77310 | 7134 ft | 285 kts | 263° |
| 2026-04-25 12:35 | 41.41123 | -8.81643 | 8330 ft | 288 kts | 258° |
| 2026-04-25 12:35 | 41.40584 | -8.84219 | 8996 ft | 291 kts | 245° |
| 2026-04-25 12:35 | 41.39565 | -8.86546 | 9656 ft | 293 kts | 230° |
| 2026-04-25 12:35 | 41.38124 | -8.88467 | 10282 ft | 296 kts | 219° |
| 2026-04-25 12:36 | 41.36494 | -8.90298 | 10454 ft | 317 kts | 219° |
| 2026-04-25 12:36 | 41.34752 | -8.92259 | 10589 ft | 338 kts | 219° |
| 2026-04-25 12:36 | 41.32932 | -8.94314 | 11003 ft | 347 kts | 219° |
| 2026-04-25 12:36 | 41.31077 | -8.96410 | 11583 ft | 351 kts | 220° |
| 2026-04-25 12:37 | 41.29208 | -8.98524 | 12182 ft | 355 kts | 219° |
| 2026-04-25 12:37 | 41.27316 | -9.00659 | 12780 ft | 358 kts | 220° |
| 2026-04-25 12:37 | 41.25409 | -9.02809 | 13375 ft | 361 kts | 220° |
| 2026-04-25 12:37 | 41.23511 | -9.04948 | 13964 ft | 364 kts | 219° |
| 2026-04-25 12:38 | 41.21567 | -9.07132 | 14471 ft | 367 kts | 220° |
| 2026-04-25 12:38 | 41.19606 | -9.09331 | 14979 ft | 371 kts | 220° |
| 2026-04-25 12:38 | 41.17631 | -9.11551 | 15483 ft | 374 kts | 220° |
| 2026-04-25 12:38 | 41.15641 | -9.13791 | 15992 ft | 377 kts | 220° |
| 2026-04-25 12:39 | 41.13632 | -9.16049 | 16487 ft | 380 kts | 220° |
| 2026-04-25 12:39 | 41.11606 | -9.18324 | 16986 ft | 383 kts | 220° |
| 2026-04-25 12:39 | 41.09560 | -9.20615 | 17467 ft | 387 kts | 220° |
| 2026-04-25 12:39 | 41.07498 | -9.22922 | 17959 ft | 390 kts | 220° |
| 2026-04-25 12:40 | 41.05418 | -9.25248 | 18432 ft | 393 kts | 220° |
| 2026-04-25 12:40 | 41.03319 | -9.27590 | 18853 ft | 396 kts | 220° |
| 2026-04-25 12:40 | 41.01204 | -9.29944 | 19285 ft | 399 kts | 220° |
| 2026-04-25 12:40 | 40.99075 | -9.32314 | 19727 ft | 401 kts | 219° |
| 2026-04-25 12:41 | 40.96775 | -9.34412 | 20154 ft | 403 kts | 208° |
| 2026-04-25 12:41 | 40.94213 | -9.35944 | 20590 ft | 405 kts | 199° |
| 2026-04-25 12:41 | 40.91535 | -9.37146 | 21023 ft | 408 kts | 198° |
| 2026-04-25 12:41 | 40.88841 | -9.38353 | 21456 ft | 410 kts | 198° |
| 2026-04-25 12:42 | 40.86162 | -9.39556 | 21858 ft | 413 kts | 198° |
| 2026-04-25 12:42 | 40.85242 | -9.39969 | 21995 ft | 414 kts | 198° |
| 2026-04-25 12:42 | 40.80687 | -9.42029 | 22671 ft | 418 kts | 199° |
| 2026-04-25 12:42 | 40.77927 | -9.43278 | 23055 ft | 421 kts | 199° |
| 2026-04-25 12:43 | 40.75145 | -9.44532 | 23425 ft | 424 kts | 199° |
| 2026-04-25 12:43 | 40.73294 | -9.45363 | 23684 ft | 425 kts | 199° |
| 2026-04-25 12:43 | 40.67662 | -9.47888 | 24300 ft | 430 kts | 199° |
| 2026-04-25 12:44 | 40.64827 | -9.49159 | 24600 ft | 432 kts | 199° |
| 2026-04-25 12:44 | 40.61974 | -9.50438 | 24885 ft | 434 kts | 199° |
| 2026-04-25 12:44 | 40.56224 | -9.53005 | 25443 ft | 438 kts | 199° |
| 2026-04-25 12:45 | 40.53333 | -9.54292 | 25735 ft | 440 kts | 199° |
| 2026-04-25 12:45 | 40.50421 | -9.55587 | 25998 ft | 443 kts | 199° |
| 2026-04-25 12:45 | 40.44564 | -9.58197 | 26536 ft | 446 kts | 199° |
| 2026-04-25 12:46 | 40.41620 | -9.59509 | 26815 ft | 448 kts | 199° |
| 2026-04-25 12:46 | 40.38663 | -9.60827 | 27078 ft | 450 kts | 199° |
| 2026-04-25 12:46 | 40.35695 | -9.62150 | 27338 ft | 451 kts | 199° |
| 2026-04-25 12:46 | 40.32717 | -9.63475 | 27596 ft | 453 kts | 199° |
| 2026-04-25 12:47 | 40.29725 | -9.64802 | 27849 ft | 455 kts | 199° |
| 2026-04-25 12:47 | 40.26720 | -9.66131 | 28093 ft | 456 kts | 199° |
| 2026-04-25 12:47 | 40.23711 | -9.67463 | 28336 ft | 458 kts | 199° |
| 2026-04-25 12:47 | 40.20680 | -9.68801 | 28585 ft | 460 kts | 199° |
| 2026-04-25 12:48 | 40.17645 | -9.70138 | 28812 ft | 461 kts | 199° |
| 2026-04-25 12:48 | 40.14600 | -9.71479 | 29037 ft | 463 kts | 199° |
| 2026-04-25 12:48 | 40.11544 | -9.72827 | 29263 ft | 464 kts | 199° |
| 2026-04-25 12:48 | 40.08482 | -9.74175 | 29477 ft | 465 kts | 199° |
| 2026-04-25 12:49 | 40.05408 | -9.75526 | 29682 ft | 467 kts | 199° |
| 2026-04-25 12:49 | 40.02327 | -9.76883 | 29882 ft | 468 kts | 199° |
| 2026-04-25 12:49 | 39.99236 | -9.78245 | 30103 ft | 469 kts | 199° |
| 2026-04-25 12:49 | 39.96151 | -9.79604 | 30397 ft | 467 kts | 200° |
| 2026-04-25 12:50 | 39.93078 | -9.80952 | 30662 ft | 466 kts | 200° |
| 2026-04-25 12:50 | 39.90051 | -9.82274 | 30934 ft | 464 kts | 200° |
| 2026-04-25 12:50 | 39.86996 | -9.83603 | 31219 ft | 462 kts | 200° |
| 2026-04-25 12:50 | 39.83955 | -9.84926 | 31501 ft | 460 kts | 200° |
| 2026-04-25 12:51 | 39.80926 | -9.86248 | 31781 ft | 458 kts | 200° |
| 2026-04-25 12:51 | 39.77908 | -9.87561 | 32048 ft | 457 kts | 200° |
| 2026-04-25 12:51 | 39.74901 | -9.88867 | 32314 ft | 455 kts | 200° |
| 2026-04-25 12:51 | 39.71902 | -9.90174 | 32580 ft | 454 kts | 201° |
| 2026-04-25 12:52 | 39.68915 | -9.91481 | 32828 ft | 452 kts | 201° |
| 2026-04-25 12:52 | 39.65936 | -9.92781 | 33079 ft | 451 kts | 201° |
| 2026-04-25 12:52 | 39.62963 | -9.94075 | 33329 ft | 450 kts | 201° |
| 2026-04-25 12:52 | 39.59998 | -9.95363 | 33566 ft | 449 kts | 201° |
| 2026-04-25 12:53 | 39.57038 | -9.96644 | 33797 ft | 448 kts | 201° |
| 2026-04-25 12:53 | 39.54084 | -9.97916 | 34040 ft | 447 kts | 201° |
| 2026-04-25 12:53 | 39.51135 | -9.99185 | 34239 ft | 446 kts | 201° |
| 2026-04-25 12:53 | 39.48191 | -10.00455 | 34422 ft | 446 kts | 201° |
| 2026-04-25 12:54 | 39.45249 | -10.01727 | 34592 ft | 446 kts | 201° |
| 2026-04-25 12:54 | 39.42309 | -10.02998 | 34750 ft | 445 kts | 201° |
| 2026-04-25 12:54 | 39.39372 | -10.04268 | 34901 ft | 445 kts | 201° |
| 2026-04-25 12:54 | 39.36437 | -10.05536 | 35069 ft | 445 kts | 201° |
| 2026-04-25 12:55 | 39.31563 | -10.07640 | 35136 ft | 444 kts | 201° |
| 2026-04-25 12:55 | 39.24716 | -10.10568 | 35135 ft | 443 kts | 200° |
| 2026-04-25 12:56 | 39.18864 | -10.13068 | 35136 ft | 443 kts | 201° |
| 2026-04-25 12:56 | 39.13022 | -10.15575 | 35136 ft | 442 kts | 201° |
| 2026-04-25 12:57 | 39.07181 | -10.18071 | 35130 ft | 442 kts | 200° |
| 2026-04-25 12:57 | 39.01340 | -10.20560 | 35134 ft | 442 kts | 201° |
| 2026-04-25 12:58 | 38.95503 | -10.23039 | 35134 ft | 442 kts | 200° |
| 2026-04-25 12:58 | 38.89669 | -10.25517 | 35138 ft | 442 kts | 200° |
| 2026-04-25 12:59 | 38.83838 | -10.27995 | 35138 ft | 441 kts | 200° |
| 2026-04-25 12:59 | 38.78004 | -10.30467 | 35140 ft | 441 kts | 201° |
| 2026-04-25 13:00 | 38.73158 | -10.32521 | 35140 ft | 441 kts | 200° |
| 2026-04-25 13:00 | 38.66377 | -10.35380 | 35140 ft | 441 kts | 200° |
| 2026-04-25 13:01 | 38.60542 | -10.37835 | 35139 ft | 442 kts | 200° |
| 2026-04-25 13:01 | 38.54705 | -10.40293 | 35134 ft | 442 kts | 200° |
| 2026-04-25 13:02 | 38.48862 | -10.42749 | 35128 ft | 442 kts | 200° |
| 2026-04-25 13:02 | 38.43018 | -10.45197 | 35124 ft | 442 kts | 200° |
| 2026-04-25 13:03 | 38.37167 | -10.47643 | 35123 ft | 443 kts | 200° |
| 2026-04-25 13:03 | 38.31345 | -10.50069 | 35124 ft | 443 kts | 200° |
| 2026-04-25 13:04 | 38.25486 | -10.52512 | 35131 ft | 443 kts | 200° |
| 2026-04-25 13:04 | 38.19629 | -10.54952 | 35131 ft | 443 kts | 200° |
| 2026-04-25 13:05 | 38.13766 | -10.57390 | 35132 ft | 443 kts | 200° |
| 2026-04-25 13:05 | 38.07906 | -10.59819 | 35135 ft | 443 kts | 200° |
| 2026-04-25 13:06 | 38.02050 | -10.62242 | 35136 ft | 443 kts | 200° |
| 2026-04-25 13:06 | 37.96195 | -10.64664 | 35136 ft | 442 kts | 200° |
| 2026-04-25 13:07 | 37.90350 | -10.67078 | 35137 ft | 442 kts | 200° |
| 2026-04-25 13:07 | 37.84508 | -10.69487 | 35134 ft | 441 kts | 200° |
| 2026-04-25 13:08 | 37.78670 | -10.71887 | 35134 ft | 441 kts | 200° |
| 2026-04-25 13:08 | 37.72838 | -10.74286 | 35137 ft | 441 kts | 200° |
| 2026-04-25 13:09 | 37.67050 | -10.76662 | 35138 ft | 440 kts | 200° |
| 2026-04-25 13:09 | 37.61222 | -10.79050 | 35139 ft | 440 kts | 200° |
| 2026-04-25 13:10 | 37.55401 | -10.81426 | 35133 ft | 440 kts | 200° |
| 2026-04-25 13:10 | 37.49586 | -10.83804 | 35132 ft | 439 kts | 200° |
| 2026-04-25 13:11 | 37.43769 | -10.86161 | 35131 ft | 439 kts | 200° |
| 2026-04-25 13:11 | 37.37957 | -10.88516 | 35133 ft | 439 kts | 200° |
| 2026-04-25 13:12 | 37.32146 | -10.90887 | 35136 ft | 439 kts | 200° |
| 2026-04-25 13:12 | 37.27319 | -10.92848 | 35139 ft | 439 kts | 200° |
| 2026-04-25 13:13 | 37.20525 | -10.95591 | 35137 ft | 439 kts | 200° |
| 2026-04-25 13:13 | 37.14717 | -10.97933 | 35141 ft | 438 kts | 200° |
| 2026-04-25 13:14 | 37.08912 | -11.00276 | 35136 ft | 438 kts | 200° |
| 2026-04-25 13:14 | 37.03112 | -11.02614 | 35135 ft | 438 kts | 200° |
| 2026-04-25 13:15 | 36.97316 | -11.04941 | 35132 ft | 437 kts | 200° |
| 2026-04-25 13:15 | 36.91525 | -11.07261 | 35131 ft | 437 kts | 200° |
| 2026-04-25 13:16 | 36.85734 | -11.09595 | 35134 ft | 437 kts | 200° |
| 2026-04-25 13:16 | 36.79982 | -11.11899 | 35133 ft | 437 kts | 200° |
| 2026-04-25 13:17 | 36.74188 | -11.14209 | 35135 ft | 437 kts | 200° |
| 2026-04-25 13:17 | 36.68395 | -11.16516 | 35137 ft | 437 kts | 200° |
| 2026-04-25 13:18 | 36.62605 | -11.18820 | 35138 ft | 437 kts | 200° |
| 2026-04-25 13:18 | 36.56814 | -11.21123 | 35137 ft | 437 kts | 200° |
| 2026-04-25 13:19 | 36.51027 | -11.23429 | 35142 ft | 437 kts | 200° |
| 2026-04-25 13:19 | 36.47157 | -11.24966 | 35139 ft | 436 kts | 200° |
| 2026-04-25 13:20 | 36.40434 | -11.27624 | 35138 ft | 436 kts | 200° |
| 2026-04-25 13:20 | 36.33674 | -11.30293 | 35136 ft | 436 kts | 200° |
| 2026-04-25 13:21 | 36.27892 | -11.32563 | 35135 ft | 436 kts | 200° |
| 2026-04-25 13:21 | 36.22117 | -11.34840 | 35133 ft | 435 kts | 200° |
| 2026-04-25 13:22 | 36.16343 | -11.37116 | 35131 ft | 435 kts | 200° |
| 2026-04-25 13:23 | 36.07685 | -11.40510 | 35131 ft | 435 kts | 200° |
| 2026-04-25 13:23 | 36.01918 | -11.42769 | 35124 ft | 435 kts | 200° |
| 2026-04-25 13:24 | 35.96197 | -11.45154 | 35121 ft | 432 kts | 207° |
| 2026-04-25 13:24 | 35.90845 | -11.48486 | 35117 ft | 431 kts | 209° |
| 2026-04-25 13:25 | 35.85494 | -11.51825 | 35113 ft | 431 kts | 209° |
| 2026-04-25 13:25 | 35.80147 | -11.55152 | 35110 ft | 431 kts | 209° |
| 2026-04-25 13:26 | 35.74803 | -11.58485 | 35115 ft | 430 kts | 209° |
| 2026-04-25 13:26 | 35.69495 | -11.61782 | 35110 ft | 430 kts | 209° |
| 2026-04-25 13:27 | 35.64153 | -11.65095 | 35109 ft | 430 kts | 209° |
| 2026-04-25 13:27 | 35.58804 | -11.68403 | 35106 ft | 430 kts | 209° |
| 2026-04-25 13:28 | 35.53462 | -11.71709 | 35109 ft | 430 kts | 209° |
| 2026-04-25 13:28 | 35.48119 | -11.75020 | 35110 ft | 430 kts | 209° |
| 2026-04-25 13:29 | 35.42774 | -11.78329 | 35108 ft | 430 kts | 209° |
| 2026-04-25 13:29 | 35.37422 | -11.81624 | 35111 ft | 431 kts | 208° |
| 2026-04-25 13:30 | 35.29385 | -11.86556 | 35114 ft | 431 kts | 208° |
| 2026-04-25 13:31 | 35.21355 | -11.91484 | 35107 ft | 431 kts | 208° |
| 2026-04-25 13:31 | 35.15997 | -11.94772 | 35111 ft | 431 kts | 208° |
| 2026-04-25 13:32 | 35.10635 | -11.98050 | 35114 ft | 431 kts | 208° |
| 2026-04-25 13:32 | 35.05267 | -12.01324 | 35115 ft | 431 kts | 208° |
| 2026-04-25 13:33 | 34.99901 | -12.04598 | 35121 ft | 431 kts | 208° |
| 2026-04-25 13:33 | 34.94535 | -12.07867 | 35126 ft | 431 kts | 208° |
| 2026-04-25 13:34 | 34.90079 | -12.10577 | 35123 ft | 431 kts | 208° |
| 2026-04-25 13:34 | 34.83852 | -12.14363 | 35123 ft | 430 kts | 208° |
| 2026-04-25 13:35 | 34.78501 | -12.17609 | 35120 ft | 430 kts | 208° |
| 2026-04-25 13:35 | 34.74016 | -12.20327 | 35117 ft | 430 kts | 208° |
| 2026-04-25 13:36 | 34.68660 | -12.23565 | 35116 ft | 430 kts | 208° |
| 2026-04-25 13:36 | 34.63305 | -12.26798 | 35119 ft | 430 kts | 208° |
| 2026-04-25 13:37 | 34.57954 | -12.30026 | 35116 ft | 429 kts | 208° |
| 2026-04-25 13:37 | 34.52641 | -12.33227 | 35117 ft | 429 kts | 207° |
| 2026-04-25 13:38 | 34.47288 | -12.36440 | 35116 ft | 429 kts | 208° |
| 2026-04-25 13:38 | 34.41937 | -12.39650 | 35114 ft | 429 kts | 207° |
| 2026-04-25 13:39 | 34.36585 | -12.42856 | 35120 ft | 429 kts | 207° |
| 2026-04-25 13:39 | 34.31233 | -12.46061 | 35117 ft | 429 kts | 207° |
| 2026-04-25 13:40 | 34.25879 | -12.49263 | 35116 ft | 429 kts | 207° |
| 2026-04-25 13:40 | 34.20524 | -12.52452 | 35115 ft | 429 kts | 207° |
| 2026-04-25 13:41 | 34.15178 | -12.55639 | 35119 ft | 428 kts | 207° |
| 2026-04-25 13:41 | 34.09832 | -12.58829 | 35110 ft | 429 kts | 207° |
| 2026-04-25 13:42 | 34.04486 | -12.62014 | 35113 ft | 429 kts | 207° |
| 2026-04-25 13:42 | 33.99136 | -12.65184 | 35109 ft | 428 kts | 207° |
| 2026-04-25 13:43 | 33.93783 | -12.68346 | 35111 ft | 428 kts | 207° |
| 2026-04-25 13:43 | 33.88437 | -12.71513 | 35113 ft | 428 kts | 207° |
| 2026-04-25 13:44 | 33.83089 | -12.74678 | 35113 ft | 428 kts | 207° |
| 2026-04-25 13:44 | 33.77733 | -12.77835 | 35114 ft | 429 kts | 207° |
| 2026-04-25 13:45 | 33.72375 | -12.80987 | 35112 ft | 429 kts | 207° |
| 2026-04-25 13:45 | 33.67022 | -12.84136 | 35117 ft | 428 kts | 207° |
| 2026-04-25 13:46 | 33.61672 | -12.87287 | 35118 ft | 428 kts | 207° |
| 2026-04-25 13:46 | 33.56327 | -12.90425 | 35117 ft | 428 kts | 206° |
| 2026-04-25 13:47 | 33.50982 | -12.93554 | 35112 ft | 427 kts | 207° |
| 2026-04-25 13:47 | 33.45643 | -12.96684 | 35111 ft | 427 kts | 206° |
| 2026-04-25 13:48 | 33.40302 | -12.99806 | 35114 ft | 427 kts | 206° |
| 2026-04-25 13:48 | 33.34996 | -13.02899 | 35111 ft | 427 kts | 206° |
| 2026-04-25 13:49 | 33.29649 | -13.06006 | 35113 ft | 427 kts | 206° |
| 2026-04-25 13:49 | 33.24312 | -13.09125 | 35114 ft | 427 kts | 206° |
| 2026-04-25 13:50 | 33.18976 | -13.12232 | 35112 ft | 426 kts | 206° |
| 2026-04-25 13:50 | 33.13639 | -13.15327 | 35108 ft | 426 kts | 206° |
| 2026-04-25 13:51 | 33.08308 | -13.18417 | 35104 ft | 426 kts | 206° |
| 2026-04-25 13:51 | 33.02973 | -13.21507 | 35098 ft | 426 kts | 206° |
| 2026-04-25 13:52 | 32.97641 | -13.24593 | 35102 ft | 426 kts | 206° |
| 2026-04-25 13:52 | 32.92299 | -13.27677 | 35102 ft | 427 kts | 206° |
| 2026-04-25 13:53 | 32.86949 | -13.30748 | 35102 ft | 427 kts | 206° |
| 2026-04-25 13:53 | 32.81595 | -13.33816 | 35097 ft | 427 kts | 206° |
| 2026-04-25 13:54 | 32.76254 | -13.36905 | 35100 ft | 427 kts | 206° |
| 2026-04-25 13:54 | 32.70936 | -13.39966 | 35103 ft | 428 kts | 206° |
| 2026-04-25 13:55 | 32.65576 | -13.43039 | 35100 ft | 428 kts | 206° |
| 2026-04-25 13:55 | 32.60215 | -13.46108 | 35099 ft | 428 kts | 206° |
| 2026-04-25 13:56 | 32.54852 | -13.49171 | 35100 ft | 428 kts | 206° |
| 2026-04-25 13:56 | 32.49489 | -13.52237 | 35098 ft | 428 kts | 206° |
| 2026-04-25 13:57 | 32.44123 | -13.55297 | 35097 ft | 428 kts | 206° |
| 2026-04-25 13:57 | 32.38752 | -13.58356 | 35093 ft | 429 kts | 206° |
| 2026-04-25 13:58 | 32.33375 | -13.61419 | 35094 ft | 429 kts | 206° |
| 2026-04-25 13:58 | 32.27993 | -13.64477 | 35092 ft | 430 kts | 206° |
| 2026-04-25 13:59 | 32.22604 | -13.67543 | 35088 ft | 430 kts | 206° |
| 2026-04-25 13:59 | 32.17203 | -13.70600 | 35086 ft | 431 kts | 206° |
| 2026-04-25 14:00 | 32.11794 | -13.73656 | 35086 ft | 431 kts | 206° |
| 2026-04-25 14:00 | 32.06378 | -13.76708 | 35084 ft | 432 kts | 206° |
| 2026-04-25 14:01 | 32.00957 | -13.79772 | 35087 ft | 432 kts | 206° |
| 2026-04-25 14:01 | 31.95528 | -13.82833 | 35086 ft | 433 kts | 206° |
| 2026-04-25 14:02 | 31.90093 | -13.85892 | 35093 ft | 433 kts | 206° |
| 2026-04-25 14:02 | 31.84658 | -13.88949 | 35092 ft | 433 kts | 206° |
| 2026-04-25 14:03 | 31.79221 | -13.91998 | 35095 ft | 433 kts | 206° |
| 2026-04-25 14:03 | 31.73780 | -13.95051 | 35098 ft | 433 kts | 206° |
| 2026-04-25 14:04 | 31.68343 | -13.98097 | 35105 ft | 433 kts | 206° |
| 2026-04-25 14:04 | 31.62905 | -14.01141 | 35104 ft | 433 kts | 206° |
| 2026-04-25 14:05 | 31.57468 | -14.04178 | 35105 ft | 433 kts | 206° |
| 2026-04-25 14:05 | 31.52073 | -14.07191 | 35099 ft | 432 kts | 206° |
| 2026-04-25 14:06 | 31.46635 | -14.10217 | 35098 ft | 433 kts | 206° |
| 2026-04-25 14:06 | 31.41198 | -14.13238 | 35099 ft | 433 kts | 206° |
| 2026-04-25 14:07 | 31.35759 | -14.16261 | 35095 ft | 433 kts | 206° |
| 2026-04-25 14:07 | 31.30321 | -14.19282 | 35098 ft | 433 kts | 206° |
| 2026-04-25 14:08 | 31.24875 | -14.22301 | 35103 ft | 433 kts | 206° |
| 2026-04-25 14:08 | 31.19431 | -14.25314 | 35106 ft | 433 kts | 206° |
| 2026-04-25 14:09 | 31.13991 | -14.28321 | 35105 ft | 432 kts | 206° |
| 2026-04-25 14:09 | 31.08558 | -14.31318 | 35106 ft | 432 kts | 206° |
| 2026-04-25 14:10 | 31.03124 | -14.34311 | 35105 ft | 432 kts | 206° |
| 2026-04-25 14:10 | 30.97694 | -14.37301 | 35100 ft | 432 kts | 206° |
| 2026-04-25 14:11 | 30.92263 | -14.40287 | 35100 ft | 432 kts | 206° |
| 2026-04-25 14:11 | 30.86840 | -14.43303 | 35099 ft | 432 kts | 207° |
| 2026-04-25 14:12 | 30.81471 | -14.46428 | 35094 ft | 432 kts | 208° |
| 2026-04-25 14:12 | 30.76107 | -14.49570 | 35095 ft | 432 kts | 208° |
| 2026-04-25 14:13 | 30.70735 | -14.52687 | 35091 ft | 432 kts | 208° |
| 2026-04-25 14:13 | 30.65351 | -14.55781 | 35090 ft | 432 kts | 207° |
| 2026-04-25 14:14 | 30.59964 | -14.58883 | 35089 ft | 432 kts | 208° |
| 2026-04-25 14:14 | 30.54578 | -14.61982 | 35087 ft | 432 kts | 208° |
| 2026-04-25 14:15 | 30.49187 | -14.65084 | 35085 ft | 433 kts | 208° |
| 2026-04-25 14:15 | 30.43789 | -14.68179 | 35086 ft | 433 kts | 208° |
| 2026-04-25 14:16 | 30.38419 | -14.71245 | 35088 ft | 433 kts | 208° |
| 2026-04-25 14:16 | 30.33015 | -14.74334 | 35092 ft | 433 kts | 208° |
| 2026-04-25 14:17 | 30.27606 | -14.77426 | 35091 ft | 433 kts | 208° |
| 2026-04-25 14:17 | 30.22202 | -14.80517 | 35090 ft | 433 kts | 208° |
| 2026-04-25 14:18 | 30.16797 | -14.83599 | 35091 ft | 433 kts | 208° |
| 2026-04-25 14:18 | 30.11387 | -14.86671 | 35092 ft | 433 kts | 208° |
| 2026-04-25 14:19 | 30.05978 | -14.89750 | 35097 ft | 433 kts | 209° |
| 2026-04-25 14:19 | 30.00570 | -14.92826 | 35097 ft | 433 kts | 209° |
| 2026-04-25 14:20 | 29.95159 | -14.95894 | 35099 ft | 433 kts | 209° |
| 2026-04-25 14:20 | 29.89745 | -14.98964 | 35099 ft | 434 kts | 209° |
| 2026-04-25 14:21 | 29.84333 | -15.02033 | 35096 ft | 434 kts | 209° |
| 2026-04-25 14:21 | 29.78914 | -15.05092 | 35105 ft | 434 kts | 209° |
| 2026-04-25 14:22 | 29.73500 | -15.08155 | 35101 ft | 433 kts | 210° |
| 2026-04-25 14:22 | 29.68087 | -15.11213 | 35099 ft | 434 kts | 210° |
| 2026-04-25 14:23 | 29.63582 | -15.13747 | 35102 ft | 434 kts | 210° |
| 2026-04-25 14:23 | 29.58159 | -15.16796 | 35088 ft | 434 kts | 210° |
| 2026-04-25 14:24 | 29.52734 | -15.19845 | 35091 ft | 434 kts | 210° |
| 2026-04-25 14:24 | 29.47306 | -15.22887 | 35096 ft | 434 kts | 210° |
| 2026-04-25 14:25 | 29.41882 | -15.25928 | 35093 ft | 434 kts | 210° |
| 2026-04-25 14:25 | 29.36464 | -15.28969 | 35086 ft | 433 kts | 210° |
| 2026-04-25 14:26 | 29.31049 | -15.32000 | 35090 ft | 433 kts | 210° |
| 2026-04-25 14:26 | 29.25635 | -15.35025 | 35086 ft | 433 kts | 211° |
| 2026-04-25 14:27 | 29.20224 | -15.38037 | 35089 ft | 432 kts | 211° |
| 2026-04-25 14:27 | 29.14816 | -15.41050 | 35093 ft | 432 kts | 211° |
| 2026-04-25 14:28 | 29.09413 | -15.44065 | 35092 ft | 432 kts | 211° |
| 2026-04-25 14:28 | 29.04006 | -15.47072 | 35097 ft | 432 kts | 211° |
| 2026-04-25 14:29 | 28.98603 | -15.50075 | 35097 ft | 431 kts | 211° |
| 2026-04-25 14:29 | 28.93207 | -15.53069 | 35097 ft | 431 kts | 211° |
| 2026-04-25 14:30 | 28.87819 | -15.56051 | 35090 ft | 430 kts | 211° |
| 2026-04-25 14:30 | 28.79747 | -15.60507 | 35088 ft | 429 kts | 211° |
| 2026-04-25 14:31 | 28.74375 | -15.63480 | 35085 ft | 429 kts | 211° |
| 2026-04-25 14:31 | 28.69010 | -15.66444 | 35082 ft | 429 kts | 211° |
| 2026-04-25 14:32 | 28.63646 | -15.69403 | 35076 ft | 428 kts | 212° |
| 2026-04-25 14:32 | 28.58281 | -15.72357 | 35077 ft | 428 kts | 212° |
| 2026-04-25 14:33 | 28.52951 | -15.75285 | 35075 ft | 428 kts | 212° |
| 2026-04-25 14:33 | 28.47594 | -15.78232 | 35080 ft | 428 kts | 212° |
| 2026-04-25 14:34 | 28.42237 | -15.81171 | 35076 ft | 428 kts | 212° |
| 2026-04-25 14:34 | 28.36878 | -15.84109 | 35075 ft | 427 kts | 212° |
| 2026-04-25 14:35 | 28.31526 | -15.87039 | 35073 ft | 427 kts | 212° |
| 2026-04-25 14:35 | 28.26176 | -15.89971 | 35074 ft | 427 kts | 212° |
| 2026-04-25 14:36 | 28.20826 | -15.92889 | 35074 ft | 426 kts | 212° |
| 2026-04-25 14:36 | 28.15481 | -15.95800 | 35076 ft | 426 kts | 212° |
| 2026-04-25 14:37 | 28.10137 | -15.98714 | 35079 ft | 426 kts | 212° |
| 2026-04-25 14:37 | 28.04799 | -16.01624 | 35074 ft | 426 kts | 213° |
| 2026-04-25 14:38 | 27.99463 | -16.04529 | 35074 ft | 425 kts | 213° |
| 2026-04-25 14:38 | 27.94127 | -16.07420 | 35068 ft | 425 kts | 213° |
| 2026-04-25 14:39 | 27.88792 | -16.10307 | 35070 ft | 425 kts | 213° |
| 2026-04-25 14:39 | 27.83461 | -16.13199 | 35064 ft | 425 kts | 213° |
| 2026-04-25 14:40 | 27.78137 | -16.16092 | 35067 ft | 424 kts | 213° |
| 2026-04-25 14:40 | 27.72817 | -16.18969 | 35063 ft | 424 kts | 213° |
| 2026-04-25 14:41 | 27.67500 | -16.21843 | 35058 ft | 423 kts | 213° |
| 2026-04-25 14:41 | 27.62192 | -16.24710 | 35059 ft | 423 kts | 213° |
| 2026-04-25 14:42 | 27.57783 | -16.27090 | 35057 ft | 423 kts | 213° |
| 2026-04-25 14:42 | 27.51580 | -16.30420 | 35059 ft | 422 kts | 214° |
| 2026-04-25 14:43 | 27.46277 | -16.33274 | 35063 ft | 422 kts | 214° |
| 2026-04-25 14:43 | 27.40977 | -16.36129 | 35067 ft | 422 kts | 214° |
| 2026-04-25 14:44 | 27.35673 | -16.38966 | 35064 ft | 422 kts | 214° |
| 2026-04-25 14:44 | 27.30415 | -16.41786 | 35069 ft | 421 kts | 214° |
| 2026-04-25 14:45 | 27.25127 | -16.44625 | 35068 ft | 421 kts | 214° |
| 2026-04-25 14:45 | 27.19836 | -16.47456 | 35069 ft | 421 kts | 214° |
| 2026-04-25 14:46 | 27.14546 | -16.50284 | 35069 ft | 421 kts | 214° |
| 2026-04-25 14:46 | 27.09257 | -16.53106 | 35072 ft | 421 kts | 215° |
| 2026-04-25 14:47 | 27.04827 | -16.55469 | 35075 ft | 421 kts | 215° |
| 2026-04-25 14:47 | 26.98683 | -16.58737 | 35077 ft | 420 kts | 215° |
| 2026-04-25 14:48 | 26.93399 | -16.61548 | 35077 ft | 420 kts | 215° |
| 2026-04-25 14:48 | 26.88119 | -16.64358 | 35081 ft | 420 kts | 215° |
| 2026-04-25 14:49 | 26.82839 | -16.67163 | 35079 ft | 420 kts | 215° |
| 2026-04-25 14:49 | 26.77563 | -16.69960 | 35074 ft | 419 kts | 215° |
| 2026-04-25 14:50 | 26.72292 | -16.72757 | 35077 ft | 419 kts | 215° |
| 2026-04-25 14:50 | 26.67027 | -16.75549 | 35076 ft | 419 kts | 215° |
| 2026-04-25 14:51 | 26.61764 | -16.78331 | 35086 ft | 418 kts | 215° |
| 2026-04-25 14:51 | 26.56508 | -16.81109 | 35081 ft | 418 kts | 216° |
| 2026-04-25 14:52 | 26.51254 | -16.83880 | 35079 ft | 417 kts | 216° |
| 2026-04-25 14:52 | 26.46893 | -16.86181 | 35075 ft | 417 kts | 216° |
| 2026-04-25 14:53 | 26.40768 | -16.89414 | 35073 ft | 416 kts | 216° |
| 2026-04-25 14:53 | 26.35531 | -16.92167 | 35072 ft | 416 kts | 216° |
| 2026-04-25 14:54 | 26.30293 | -16.94914 | 35069 ft | 416 kts | 216° |
| 2026-04-25 14:54 | 26.25063 | -16.97654 | 35065 ft | 415 kts | 216° |
| 2026-04-25 14:55 | 26.19839 | -17.00398 | 35065 ft | 415 kts | 216° |
| 2026-04-25 14:55 | 26.14619 | -17.03133 | 35061 ft | 415 kts | 216° |
| 2026-04-25 14:56 | 26.09398 | -17.05863 | 35061 ft | 414 kts | 216° |
| 2026-04-25 14:56 | 26.04189 | -17.08593 | 35058 ft | 414 kts | 216° |
| 2026-04-25 14:57 | 25.98979 | -17.11319 | 35053 ft | 414 kts | 216° |
| 2026-04-25 14:57 | 25.93805 | -17.14016 | 35053 ft | 413 kts | 216° |
| 2026-04-25 14:58 | 25.88598 | -17.16727 | 35051 ft | 413 kts | 216° |
| 2026-04-25 14:58 | 25.83386 | -17.19442 | 35050 ft | 414 kts | 216° |
| 2026-04-25 14:59 | 25.78178 | -17.22156 | 35052 ft | 414 kts | 216° |
| 2026-04-25 14:59 | 25.72969 | -17.24872 | 35053 ft | 414 kts | 216° |
| 2026-04-25 15:00 | 25.67757 | -17.27585 | 35052 ft | 414 kts | 216° |
| 2026-04-25 15:00 | 25.62542 | -17.30290 | 35052 ft | 414 kts | 216° |
| 2026-04-25 15:01 | 25.57328 | -17.32992 | 35053 ft | 414 kts | 216° |
| 2026-04-25 15:01 | 25.52119 | -17.35695 | 35052 ft | 413 kts | 216° |
| 2026-04-25 15:02 | 25.46910 | -17.38391 | 35054 ft | 413 kts | 216° |
| 2026-04-25 15:02 | 25.41699 | -17.41082 | 35050 ft | 413 kts | 216° |
| 2026-04-25 15:03 | 25.36493 | -17.43771 | 35049 ft | 413 kts | 216° |
| 2026-04-25 15:03 | 25.31284 | -17.46458 | 35054 ft | 413 kts | 216° |
| 2026-04-25 15:04 | 25.26080 | -17.49143 | 35046 ft | 413 kts | 216° |
| 2026-04-25 15:04 | 25.20877 | -17.51824 | 35051 ft | 413 kts | 216° |
| 2026-04-25 15:05 | 25.15670 | -17.54498 | 35046 ft | 413 kts | 216° |
| 2026-04-25 15:06 | 25.07866 | -17.58506 | 35044 ft | 412 kts | 216° |
| 2026-04-25 15:06 | 25.02671 | -17.61177 | 35040 ft | 412 kts | 216° |
| 2026-04-25 15:07 | 24.97693 | -17.64140 | 35033 ft | 402 kts | 223° |
| 2026-04-25 15:07 | 24.92956 | -17.67419 | 35035 ft | 402 kts | 222° |
| 2026-04-25 15:08 | 24.88218 | -17.70688 | 35033 ft | 402 kts | 222° |
| 2026-04-25 15:08 | 24.84282 | -17.73406 | 35033 ft | 402 kts | 222° |
| 2026-04-25 15:09 | 24.79547 | -17.76670 | 35032 ft | 401 kts | 222° |
| 2026-04-25 15:09 | 24.72443 | -17.81550 | 35028 ft | 401 kts | 222° |
| 2026-04-25 15:10 | 24.67708 | -17.84798 | 35027 ft | 401 kts | 222° |
| 2026-04-25 15:11 | 24.60892 | -17.89487 | 35025 ft | 400 kts | 223° |
| 2026-04-25 15:11 | 24.56168 | -17.92730 | 35024 ft | 400 kts | 222° |
| 2026-04-25 15:12 | 24.49081 | -17.97574 | 35023 ft | 400 kts | 222° |
| 2026-04-25 15:12 | 24.45158 | -18.00259 | 35024 ft | 399 kts | 223° |
| 2026-04-25 15:13 | 24.37296 | -18.05652 | 35018 ft | 399 kts | 223° |
| 2026-04-25 15:14 | 24.32580 | -18.08871 | 35019 ft | 399 kts | 222° |
| 2026-04-25 15:14 | 24.27865 | -18.12090 | 35015 ft | 399 kts | 223° |
| 2026-04-25 15:15 | 24.23147 | -18.15303 | 35016 ft | 399 kts | 223° |
| 2026-04-25 15:15 | 24.18433 | -18.18514 | 35019 ft | 399 kts | 223° |
| 2026-04-25 15:16 | 24.13751 | -18.21700 | 35018 ft | 399 kts | 223° |
| 2026-04-25 15:16 | 24.06681 | -18.26505 | 35018 ft | 399 kts | 223° |
| 2026-04-25 15:17 | 23.99608 | -18.31302 | 35047 ft | 400 kts | 222° |
| 2026-04-25 15:17 | 23.97241 | -18.32907 | 35203 ft | 401 kts | 223° |
| 2026-04-25 15:18 | 23.94870 | -18.34512 | 35400 ft | 400 kts | 223° |
| 2026-04-25 15:18 | 23.90141 | -18.37711 | 35799 ft | 399 kts | 223° |
| 2026-04-25 15:18 | 23.87784 | -18.39310 | 35977 ft | 398 kts | 223° |
| 2026-04-25 15:19 | 23.83842 | -18.41980 | 36034 ft | 398 kts | 223° |
| 2026-04-25 15:19 | 23.78386 | -18.45675 | 36036 ft | 397 kts | 223° |
| 2026-04-25 15:20 | 23.73691 | -18.48851 | 36031 ft | 397 kts | 223° |
| 2026-04-25 15:20 | 23.68995 | -18.52019 | 36030 ft | 397 kts | 223° |
| 2026-04-25 15:21 | 23.64297 | -18.55183 | 36027 ft | 397 kts | 223° |
| 2026-04-25 15:21 | 23.59601 | -18.58349 | 36023 ft | 397 kts | 223° |
| 2026-04-25 15:22 | 23.54904 | -18.61513 | 36022 ft | 397 kts | 223° |
| 2026-04-25 15:22 | 23.50203 | -18.64667 | 36019 ft | 397 kts | 223° |
| 2026-04-25 15:23 | 23.45507 | -18.67820 | 36017 ft | 396 kts | 223° |
| 2026-04-25 15:23 | 23.40818 | -18.70978 | 36014 ft | 396 kts | 223° |
| 2026-04-25 15:24 | 23.36122 | -18.74123 | 36009 ft | 397 kts | 223° |
| 2026-04-25 15:24 | 23.32213 | -18.76738 | 36007 ft | 397 kts | 223° |
| 2026-04-25 15:25 | 23.26716 | -18.80422 | 36009 ft | 397 kts | 223° |
| 2026-04-25 15:25 | 23.22010 | -18.83574 | 36008 ft | 397 kts | 223° |
| 2026-04-25 15:26 | 23.17335 | -18.86706 | 36007 ft | 398 kts | 223° |
| 2026-04-25 15:26 | 23.12624 | -18.89850 | 36005 ft | 397 kts | 223° |
| 2026-04-25 15:27 | 23.07909 | -18.92995 | 36002 ft | 398 kts | 223° |
| 2026-04-25 15:28 | 23.00837 | -18.97718 | 36001 ft | 398 kts | 223° |
| 2026-04-25 15:28 | 22.96116 | -19.00861 | 35992 ft | 398 kts | 222° |
| 2026-04-25 15:29 | 22.91392 | -19.04006 | 35990 ft | 398 kts | 222° |
| 2026-04-25 15:29 | 22.86666 | -19.07147 | 35994 ft | 399 kts | 222° |
| 2026-04-25 15:30 | 22.82729 | -19.09761 | 36000 ft | 399 kts | 222° |
| 2026-04-25 15:30 | 22.77192 | -19.13441 | 36007 ft | 400 kts | 222° |
| 2026-04-25 15:31 | 22.72441 | -19.16588 | 36008 ft | 400 kts | 222° |
| 2026-04-25 15:31 | 22.67692 | -19.19735 | 36007 ft | 400 kts | 222° |
| 2026-04-25 15:32 | 22.62943 | -19.22889 | 36008 ft | 401 kts | 222° |
| 2026-04-25 15:32 | 22.58184 | -19.26038 | 36008 ft | 401 kts | 222° |
| 2026-04-25 15:33 | 22.51042 | -19.30752 | 36004 ft | 401 kts | 222° |
| 2026-04-25 15:33 | 22.46279 | -19.33894 | 36001 ft | 401 kts | 222° |
| 2026-04-25 15:34 | 22.41519 | -19.37041 | 35998 ft | 401 kts | 222° |
| 2026-04-25 15:34 | 22.37556 | -19.39659 | 35999 ft | 402 kts | 222° |
| 2026-04-25 15:35 | 22.29585 | -19.44903 | 36001 ft | 402 kts | 221° |
| 2026-04-25 15:36 | 22.22406 | -19.49621 | 35999 ft | 403 kts | 221° |
| 2026-04-25 15:36 | 22.17616 | -19.52770 | 35999 ft | 403 kts | 221° |
| 2026-04-25 15:37 | 22.12827 | -19.55921 | 35999 ft | 403 kts | 221° |
| 2026-04-25 15:37 | 22.08027 | -19.59067 | 35998 ft | 404 kts | 221° |
| 2026-04-25 15:38 | 22.03223 | -19.62210 | 35997 ft | 404 kts | 221° |
| 2026-04-25 15:38 | 21.98453 | -19.65336 | 35999 ft | 404 kts | 221° |
| 2026-04-25 15:39 | 21.93642 | -19.68479 | 35998 ft | 404 kts | 221° |
| 2026-04-25 15:39 | 21.88832 | -19.71620 | 35997 ft | 404 kts | 221° |
| 2026-04-25 15:40 | 21.85618 | -19.73728 | 35994 ft | 404 kts | 221° |
| 2026-04-25 15:40 | 21.79219 | -19.77920 | 35991 ft | 405 kts | 221° |
| 2026-04-25 15:41 | 21.74401 | -19.81061 | 35991 ft | 405 kts | 221° |
| 2026-04-25 15:41 | 21.69588 | -19.84201 | 35990 ft | 405 kts | 221° |
| 2026-04-25 15:42 | 21.64769 | -19.87340 | 35986 ft | 405 kts | 221° |
| 2026-04-25 15:42 | 21.59949 | -19.90476 | 35985 ft | 405 kts | 220° |
| 2026-04-25 15:43 | 21.55125 | -19.93610 | 35978 ft | 405 kts | 220° |
| 2026-04-25 15:43 | 21.50300 | -19.96748 | 35974 ft | 405 kts | 220° |
| 2026-04-25 15:44 | 21.45470 | -19.99878 | 35979 ft | 406 kts | 220° |
| 2026-04-25 15:44 | 21.40638 | -20.03011 | 35975 ft | 406 kts | 220° |
| 2026-04-25 15:45 | 21.35804 | -20.06144 | 35971 ft | 406 kts | 220° |
| 2026-04-25 15:45 | 21.32571 | -20.08243 | 35969 ft | 406 kts | 220° |
| 2026-04-25 15:46 | 21.26130 | -20.12417 | 35969 ft | 406 kts | 220° |
| 2026-04-25 15:46 | 21.21290 | -20.15549 | 35969 ft | 407 kts | 220° |
| 2026-04-25 15:47 | 21.16439 | -20.18679 | 35967 ft | 407 kts | 220° |
| 2026-04-25 15:47 | 21.11584 | -20.21802 | 35968 ft | 407 kts | 220° |
| 2026-04-25 15:48 | 21.06730 | -20.24930 | 35970 ft | 407 kts | 220° |
| 2026-04-25 15:48 | 21.01879 | -20.28069 | 35976 ft | 408 kts | 220° |
| 2026-04-25 15:49 | 20.97051 | -20.31180 | 35976 ft | 408 kts | 220° |
| 2026-04-25 15:49 | 20.92187 | -20.34314 | 35968 ft | 408 kts | 220° |
| 2026-04-25 15:50 | 20.87318 | -20.37440 | 35969 ft | 408 kts | 219° |
| 2026-04-25 15:50 | 20.82443 | -20.40569 | 35967 ft | 409 kts | 220° |
| 2026-04-25 15:51 | 20.79188 | -20.42668 | 35969 ft | 409 kts | 220° |
| 2026-04-25 15:51 | 20.72704 | -20.46846 | 35967 ft | 409 kts | 219° |
| 2026-04-25 15:52 | 20.67816 | -20.49975 | 35973 ft | 410 kts | 219° |
| 2026-04-25 15:52 | 20.62925 | -20.53101 | 35968 ft | 410 kts | 219° |
| 2026-04-25 15:53 | 20.58030 | -20.56230 | 35969 ft | 410 kts | 219° |
| 2026-04-25 15:53 | 20.53135 | -20.59359 | 35970 ft | 410 kts | 219° |
| 2026-04-25 15:54 | 20.48240 | -20.62491 | 35967 ft | 410 kts | 219° |
| 2026-04-25 15:54 | 20.43339 | -20.65625 | 35968 ft | 411 kts | 219° |
| 2026-04-25 15:55 | 20.38438 | -20.68759 | 35969 ft | 411 kts | 219° |
| 2026-04-25 15:55 | 20.34360 | -20.71363 | 35970 ft | 411 kts | 219° |
| 2026-04-25 15:56 | 20.29444 | -20.74487 | 35972 ft | 412 kts | 219° |
| 2026-04-25 15:56 | 20.24522 | -20.77609 | 35971 ft | 412 kts | 219° |
| 2026-04-25 15:57 | 20.19602 | -20.80738 | 35972 ft | 412 kts | 219° |
| 2026-04-25 15:57 | 20.14674 | -20.83863 | 35965 ft | 412 kts | 219° |
| 2026-04-25 15:58 | 20.09746 | -20.86988 | 35971 ft | 413 kts | 218° |
| 2026-04-25 15:58 | 20.04813 | -20.90118 | 35963 ft | 413 kts | 218° |
| 2026-04-25 15:59 | 19.99875 | -20.93242 | 35969 ft | 413 kts | 218° |
| 2026-04-25 15:59 | 19.94937 | -20.96373 | 35968 ft | 413 kts | 218° |
| 2026-04-25 16:00 | 19.90827 | -20.98971 | 35964 ft | 414 kts | 218° |
| 2026-04-25 16:00 | 19.85044 | -21.02623 | 35955 ft | 414 kts | 218° |
| 2026-04-25 16:01 | 19.80125 | -21.05730 | 35968 ft | 414 kts | 218° |
| 2026-04-25 16:01 | 19.75165 | -21.08850 | 35968 ft | 414 kts | 218° |
| 2026-04-25 16:02 | 19.70203 | -21.11974 | 35965 ft | 415 kts | 218° |
| 2026-04-25 16:02 | 19.65245 | -21.15104 | 35961 ft | 415 kts | 218° |
| 2026-04-25 16:03 | 19.60287 | -21.18237 | 35959 ft | 415 kts | 218° |
| 2026-04-25 16:03 | 19.55318 | -21.21360 | 35962 ft | 415 kts | 218° |
| 2026-04-25 16:04 | 19.50344 | -21.24477 | 35965 ft | 415 kts | 218° |
| 2026-04-25 16:04 | 19.45372 | -21.27600 | 35966 ft | 416 kts | 218° |
| 2026-04-25 16:05 | 19.40396 | -21.30725 | 35961 ft | 416 kts | 218° |
| 2026-04-25 16:06 | 19.32928 | -21.35410 | 35959 ft | 416 kts | 218° |
| 2026-04-25 16:06 | 19.27943 | -21.38530 | 35958 ft | 416 kts | 217° |
| 2026-04-25 16:07 | 19.22960 | -21.41653 | 35958 ft | 416 kts | 218° |
| 2026-04-25 16:07 | 19.18014 | -21.44759 | 35964 ft | 416 kts | 218° |
| 2026-04-25 16:08 | 19.13026 | -21.47880 | 35963 ft | 417 kts | 217° |
| 2026-04-25 16:08 | 19.08033 | -21.50994 | 35964 ft | 417 kts | 217° |
| 2026-04-25 16:09 | 19.03041 | -21.54107 | 35963 ft | 417 kts | 217° |
| 2026-04-25 16:09 | 18.98049 | -21.57224 | 35964 ft | 417 kts | 217° |
| 2026-04-25 16:10 | 18.93053 | -21.60338 | 35963 ft | 417 kts | 217° |
| 2026-04-25 16:10 | 18.88056 | -21.63447 | 35963 ft | 417 kts | 217° |
| 2026-04-25 16:11 | 18.83059 | -21.66562 | 35960 ft | 417 kts | 217° |
| 2026-04-25 16:11 | 18.78059 | -21.69678 | 35960 ft | 417 kts | 217° |
| 2026-04-25 16:12 | 18.73054 | -21.72790 | 35960 ft | 418 kts | 217° |
| 2026-04-25 16:12 | 18.68042 | -21.75899 | 35958 ft | 418 kts | 217° |
| 2026-04-25 16:13 | 18.63031 | -21.79006 | 35957 ft | 418 kts | 217° |
| 2026-04-25 16:13 | 18.58018 | -21.82119 | 35960 ft | 418 kts | 217° |
| 2026-04-25 16:14 | 18.53002 | -21.85238 | 35956 ft | 418 kts | 217° |
| 2026-04-25 16:14 | 18.47981 | -21.88347 | 35956 ft | 419 kts | 217° |
| 2026-04-25 16:15 | 18.42954 | -21.91451 | 35959 ft | 419 kts | 217° |
| 2026-04-25 16:15 | 18.37929 | -21.94562 | 35957 ft | 419 kts | 217° |
| 2026-04-25 16:16 | 18.32896 | -21.97667 | 35958 ft | 419 kts | 217° |
| 2026-04-25 16:16 | 18.27870 | -22.00778 | 35960 ft | 419 kts | 217° |
| 2026-04-25 16:17 | 18.22837 | -22.03887 | 35958 ft | 419 kts | 217° |
| 2026-04-25 16:17 | 18.17836 | -22.06973 | 35958 ft | 420 kts | 217° |
| 2026-04-25 16:18 | 18.12766 | -22.10102 | 35957 ft | 420 kts | 217° |
| 2026-04-25 16:18 | 18.07761 | -22.13189 | 35956 ft | 420 kts | 217° |
| 2026-04-25 16:19 | 18.02720 | -22.16294 | 35956 ft | 420 kts | 216° |
| 2026-04-25 16:19 | 17.97671 | -22.19393 | 35957 ft | 420 kts | 216° |
| 2026-04-25 16:20 | 17.90098 | -22.24047 | 35958 ft | 421 kts | 215° |
| 2026-04-25 16:21 | 17.81782 | -22.27422 | 35953 ft | 429 kts | 206° |
| 2026-04-25 16:21 | 17.76138 | -22.29494 | 35952 ft | 430 kts | 205° |
| 2026-04-25 16:22 | 17.70490 | -22.31567 | 35953 ft | 430 kts | 206° |
| 2026-04-25 16:22 | 17.64840 | -22.33649 | 35953 ft | 430 kts | 206° |
| 2026-04-25 16:23 | 17.59189 | -22.35728 | 35950 ft | 431 kts | 205° |
| 2026-04-25 16:23 | 17.53530 | -22.37800 | 35950 ft | 431 kts | 205° |
| 2026-04-25 16:24 | 17.47866 | -22.39872 | 35950 ft | 431 kts | 205° |
| 2026-04-25 16:24 | 17.42200 | -22.41947 | 35949 ft | 431 kts | 205° |
| 2026-04-25 16:25 | 17.36534 | -22.44029 | 35947 ft | 432 kts | 205° |
| 2026-04-25 16:25 | 17.30861 | -22.46105 | 35946 ft | 432 kts | 205° |
| 2026-04-25 16:26 | 17.25185 | -22.48187 | 35947 ft | 432 kts | 205° |
| 2026-04-25 16:26 | 17.19504 | -22.50259 | 35943 ft | 433 kts | 205° |
| 2026-04-25 16:27 | 17.13814 | -22.52329 | 35944 ft | 433 kts | 205° |
| 2026-04-25 16:27 | 17.08129 | -22.54412 | 35945 ft | 433 kts | 205° |
| 2026-04-25 16:28 | 17.02431 | -22.56501 | 35939 ft | 434 kts | 205° |
| 2026-04-25 16:28 | 16.96727 | -22.58585 | 35950 ft | 435 kts | 205° |
| 2026-04-25 16:29 | 16.91007 | -22.60657 | 35940 ft | 435 kts | 205° |
| 2026-04-25 16:29 | 16.85325 | -22.62718 | 35943 ft | 435 kts | 205° |
| 2026-04-25 16:30 | 16.79606 | -22.64802 | 35938 ft | 435 kts | 205° |
| 2026-04-25 16:30 | 16.73886 | -22.66889 | 35937 ft | 436 kts | 205° |
| 2026-04-25 16:31 | 16.68164 | -22.68975 | 35933 ft | 436 kts | 204° |
| 2026-04-25 16:31 | 16.62434 | -22.71047 | 35939 ft | 436 kts | 204° |
| 2026-04-25 16:32 | 16.56703 | -22.73124 | 35936 ft | 436 kts | 204° |
| 2026-04-25 16:32 | 16.53835 | -22.74170 | 35793 ft | 437 kts | 204° |
| 2026-04-25 16:32 | 16.50963 | -22.75217 | 35555 ft | 437 kts | 204° |
| 2026-04-25 16:32 | 16.48136 | -22.76246 | 35318 ft | 436 kts | 204° |
| 2026-04-25 16:33 | 16.45273 | -22.77287 | 35084 ft | 435 kts | 204° |
| 2026-04-25 16:33 | 16.42413 | -22.78324 | 34850 ft | 435 kts | 204° |
| 2026-04-25 16:33 | 16.39559 | -22.79355 | 34619 ft | 434 kts | 204° |
| 2026-04-25 16:33 | 16.36711 | -22.80382 | 34390 ft | 433 kts | 204° |
| 2026-04-25 16:34 | 16.33863 | -22.81407 | 34160 ft | 432 kts | 204° |
| 2026-04-25 16:34 | 16.31025 | -22.82432 | 33932 ft | 432 kts | 205° |
| 2026-04-25 16:34 | 16.28191 | -22.83457 | 33675 ft | 431 kts | 205° |
| 2026-04-25 16:34 | 16.25364 | -22.84481 | 33414 ft | 430 kts | 205° |
| 2026-04-25 16:35 | 16.22541 | -22.85502 | 33161 ft | 429 kts | 205° |
| 2026-04-25 16:35 | 16.19722 | -22.86521 | 32910 ft | 428 kts | 205° |
| 2026-04-25 16:35 | 16.16914 | -22.87540 | 32659 ft | 427 kts | 205° |
| 2026-04-25 16:35 | 16.14109 | -22.88556 | 32412 ft | 426 kts | 205° |
| 2026-04-25 16:36 | 16.11327 | -22.89609 | 32167 ft | 425 kts | 206° |
| 2026-04-25 16:36 | 16.05890 | -22.91919 | 31557 ft | 419 kts | 208° |
| 2026-04-25 16:36 | 16.03219 | -22.93110 | 31056 ft | 417 kts | 209° |
| 2026-04-25 16:37 | 16.00556 | -22.94299 | 30564 ft | 416 kts | 208° |
| 2026-04-25 16:37 | 15.97891 | -22.95470 | 30077 ft | 416 kts | 208° |
| 2026-04-25 16:37 | 15.95227 | -22.96624 | 29544 ft | 414 kts | 208° |
| 2026-04-25 16:37 | 15.92571 | -22.97763 | 29076 ft | 411 kts | 208° |
| 2026-04-25 16:38 | 15.89937 | -22.98886 | 28610 ft | 408 kts | 207° |
| 2026-04-25 16:38 | 15.87353 | -22.99985 | 28162 ft | 405 kts | 207° |
| 2026-04-25 16:38 | 15.84754 | -23.01093 | 27709 ft | 403 kts | 207° |
| 2026-04-25 16:38 | 15.82171 | -23.02199 | 27249 ft | 401 kts | 207° |
| 2026-04-25 16:39 | 15.79598 | -23.03303 | 26784 ft | 399 kts | 207° |
| 2026-04-25 16:39 | 15.77039 | -23.04402 | 26325 ft | 397 kts | 207° |
| 2026-04-25 16:39 | 15.74483 | -23.05493 | 25674 ft | 400 kts | 207° |
| 2026-04-25 16:39 | 15.71873 | -23.06573 | 24920 ft | 402 kts | 206° |
| 2026-04-25 16:40 | 15.69305 | -23.07599 | 24447 ft | 392 kts | 205° |
| 2026-04-25 16:40 | 15.66760 | -23.08606 | 23951 ft | 392 kts | 205° |
| 2026-04-25 16:40 | 15.64212 | -23.09616 | 23443 ft | 392 kts | 205° |
| 2026-04-25 16:40 | 15.61666 | -23.10630 | 22894 ft | 391 kts | 205° |
| 2026-04-25 16:41 | 15.59134 | -23.11645 | 22400 ft | 389 kts | 205° |
| 2026-04-25 16:41 | 15.58281 | -23.11988 | 22234 ft | 388 kts | 205° |
| 2026-04-25 16:41 | 15.51627 | -23.14666 | 21052 ft | 381 kts | 204° |
| 2026-04-25 16:42 | 15.49157 | -23.15658 | 20616 ft | 378 kts | 204° |
| 2026-04-25 16:42 | 15.46720 | -23.16633 | 20234 ft | 374 kts | 204° |
| 2026-04-25 16:42 | 15.44302 | -23.17600 | 19777 ft | 370 kts | 204° |
| 2026-04-25 16:42 | 15.41924 | -23.18554 | 19122 ft | 363 kts | 204° |
| 2026-04-25 16:43 | 15.39608 | -23.19484 | 18676 ft | 351 kts | 204° |
| 2026-04-25 16:43 | 15.37374 | -23.20382 | 18256 ft | 339 kts | 204° |
| 2026-04-25 16:43 | 15.35209 | -23.21249 | 17803 ft | 328 kts | 204° |
| 2026-04-25 16:43 | 15.33149 | -23.22072 | 17416 ft | 316 kts | 204° |
| 2026-04-25 16:44 | 15.31113 | -23.22886 | 17043 ft | 313 kts | 204° |
| 2026-04-25 16:44 | 15.29085 | -23.23698 | 16667 ft | 312 kts | 204° |
| 2026-04-25 16:44 | 15.27060 | -23.24512 | 16287 ft | 312 kts | 204° |
| 2026-04-25 16:44 | 15.25039 | -23.25327 | 15925 ft | 312 kts | 204° |
| 2026-04-25 16:45 | 15.23018 | -23.26142 | 15550 ft | 311 kts | 204° |
| 2026-04-25 16:45 | 15.21000 | -23.26955 | 15187 ft | 311 kts | 204° |
| 2026-04-25 16:45 | 15.18984 | -23.27766 | 14817 ft | 311 kts | 204° |
| 2026-04-25 16:45 | 15.16964 | -23.28575 | 14451 ft | 311 kts | 204° |
| 2026-04-25 16:46 | 15.14944 | -23.29381 | 14078 ft | 311 kts | 204° |
| 2026-04-25 16:46 | 15.12922 | -23.30189 | 13702 ft | 312 kts | 204° |
| 2026-04-25 16:46 | 15.10899 | -23.30997 | 13296 ft | 311 kts | 204° |
| 2026-04-25 16:46 | 15.10220 | -23.31267 | 13212 ft | 309 kts | 204° |
| 2026-04-25 16:47 | 15.06905 | -23.32587 | 12636 ft | 306 kts | 203° |
| 2026-04-25 16:47 | 15.04925 | -23.33376 | 12257 ft | 304 kts | 203° |
| 2026-04-25 16:47 | 15.02955 | -23.34163 | 11885 ft | 303 kts | 204° |
| 2026-04-25 16:47 | 15.00989 | -23.34950 | 11500 ft | 302 kts | 203° |
| 2026-04-25 16:48 | 14.99692 | -23.35469 | 11242 ft | 302 kts | 203° |
| 2026-04-25 16:48 | 14.97738 | -23.36250 | 10869 ft | 301 kts | 203° |
| 2026-04-25 16:48 | 14.95788 | -23.37028 | 10487 ft | 300 kts | 203° |
| 2026-04-25 16:48 | 14.93862 | -23.37799 | 10273 ft | 292 kts | 203° |
| 2026-04-25 16:49 | 14.91986 | -23.38550 | 9801 ft | 287 kts | 202° |
| 2026-04-25 16:49 | 14.90141 | -23.39284 | 9320 ft | 279 kts | 203° |
| 2026-04-25 16:49 | 14.88365 | -23.39988 | 8928 ft | 268 kts | 203° |
| 2026-04-25 16:49 | 14.86657 | -23.40664 | 8570 ft | 259 kts | 203° |
| 2026-04-25 16:50 | 14.84977 | -23.41331 | 8198 ft | 259 kts | 203° |
| 2026-04-25 16:50 | 14.83299 | -23.42002 | 7836 ft | 258 kts | 203° |
| 2026-04-25 16:50 | 14.81624 | -23.42674 | 7459 ft | 258 kts | 203° |
| 2026-04-25 16:50 | 14.79948 | -23.43346 | 7088 ft | 259 kts | 203° |
| 2026-04-25 16:51 | 14.78267 | -23.44017 | 6705 ft | 259 kts | 203° |
| 2026-04-25 16:51 | 14.76585 | -23.44688 | 6362 ft | 257 kts | 203° |
| 2026-04-25 16:51 | 14.74929 | -23.45348 | 6282 ft | 256 kts | 204° |
| 2026-04-25 16:51 | 14.73885 | -23.45900 | 6212 ft | 254 kts | 219° |
| 2026-04-25 16:52 | 14.72592 | -23.47861 | 6042 ft | 249 kts | 257° |
| 2026-04-25 16:52 | 14.72586 | -23.49619 | 5626 ft | 247 kts | 287° |
| 2026-04-25 16:52 | 14.73205 | -23.51266 | 5229 ft | 245 kts | 293° |
| 2026-04-25 16:52 | 14.73854 | -23.52895 | 4864 ft | 245 kts | 294° |
| 2026-04-25 16:53 | 14.75715 | -23.55584 | 4132 ft | 229 kts | 341° |
| 2026-04-25 16:53 | 14.77283 | -23.55628 | 3815 ft | 229 kts | 13° |
| 2026-04-25 16:53 | 14.78791 | -23.55117 | 3492 ft | 227 kts | 20° |
| 2026-04-25 16:54 | 14.80202 | -23.54492 | 3177 ft | 215 kts | 22° |
| 2026-04-25 16:54 | 14.81528 | -23.53875 | 2863 ft | 203 kts | 23° |
| 2026-04-25 16:54 | 14.82779 | -23.53301 | 2597 ft | 192 kts | 23° |
| 2026-04-25 16:54 | 14.83943 | -23.52782 | 2378 ft | 173 kts | 22° |
| 2026-04-25 16:55 | 14.84997 | -23.52322 | 2123 ft | 157 kts | 22° |
| 2026-04-25 16:55 | 14.85965 | -23.51906 | 1920 ft | 146 kts | 21° |
| 2026-04-25 16:55 | 14.86866 | -23.51520 | 1745 ft | 137 kts | 22° |
| 2026-04-25 16:55 | 14.87742 | -23.51147 | 1551 ft | 136 kts | 22° |
| 2026-04-25 16:56 | 14.88611 | -23.50779 | 1361 ft | 134 kts | 20° |
| 2026-04-25 16:56 | 14.89472 | -23.50410 | 1142 ft | 135 kts | 23° |
| 2026-04-25 16:56 | 14.90341 | -23.50039 | 997 ft | 136 kts | 22° |
| 2026-04-25 16:56 | 14.91211 | -23.49678 | 854 ft | 134 kts | 21° |
| 2026-04-25 16:57 | 14.92073 | -23.49317 | 657 ft | 132 kts | 22° |
| 2026-04-25 16:57 | 14.92636 | -23.49082 | 525 ft | 131 kts | 23° |
| 2026-04-25 16:57 | 14.93741 | -23.48623 | 351 ft | 127 kts | 23° |
| 2026-04-25 16:57 | 14.94399 | -23.48351 | 344 ft | 72 kts | 21° |
| 2026-04-25 16:58 | 14.94688 | -23.48232 | 359 ft | 17 kts | 25° |
| 2026-04-25 16:58 | 14.94773 | -23.48192 | 365 ft | 10 kts | 334° |
| 2026-04-25 16:58 | 14.94769 | -23.48207 | 361 ft | 2 kts | 205° |
| 2026-04-25 16:58 | 14.94743 | -23.48214 | 364 ft | 6 kts | 194° |
| 2026-04-25 16:59 | 14.94656 | -23.48246 | 357 ft | 14 kts | 202° |
| 2026-04-25 16:59 | 14.94566 | -23.48291 | 351 ft | 14 kts | 223° |
| 2026-04-25 16:59 | 14.94564 | -23.48367 | 350 ft | 3 kts | 292° |
| 2026-04-25 16:59 | 14.94571 | -23.48385 | 354 ft | 3 kts | 293° |
| 2026-04-25 17:00 | 14.94581 | -23.48436 | 350 ft | 11 kts | 256° |
| 2026-04-25 17:00 | 14.94515 | -23.48479 | 349 ft | 12 kts | 200° |
| 2026-04-25 17:00 | 14.94464 | -23.48512 | 345 ft | 8 kts | 253° |
| 2026-04-25 17:00 | 14.94478 | -23.48552 | 338 ft | 4 kts | 293° |
| 2026-04-25 17:01 | 14.94482 | -23.48562 | 335 ft | 0 kts | 292° |